createdAt,value
2023-05-03T00:01:13.954Z,102173.16
2023-05-03T00:03:40.307Z,102176.13
2023-05-03T00:06:11.439Z,102179.13
2023-05-03T00:08:37.860Z,102171.41
2023-05-03T00:11:04.232Z,102162.78
2023-05-03T00:13:30.789Z,102170.09
2023-05-03T00:15:57.137Z,102171.16
2023-05-03T00:18:23.957Z,102164.22
2023-05-03T00:20:51.291Z,102163.38
2023-05-03T00:23:17.651Z,102165.19
2023-05-03T00:25:44.613Z,102169.69
2023-05-03T00:28:11.026Z,102163.47
2023-05-03T00:30:37.413Z,102161.75
2023-05-03T00:33:03.795Z,102160.06
2023-05-03T00:35:30.273Z,102165.41
2023-05-03T00:37:56.626Z,102166.25
2023-05-03T00:40:23.028Z,102174.34
2023-05-03T00:42:49.462Z,102161.97
2023-05-03T00:45:15.944Z,102166.44
2023-05-03T00:47:43.442Z,102167.31
2023-05-03T00:50:11.836Z,102167.38
2023-05-03T00:52:39.330Z,102163.88
2023-05-03T00:55:07.493Z,102169.22
2023-05-03T00:57:33.830Z,102164.84
2023-05-03T01:00:00.716Z,102167.50
2023-05-03T01:02:28.211Z,102170.25
2023-05-03T01:05:02.407Z,102167.59
2023-05-03T01:07:42.688Z,102167.59
2023-05-03T01:10:29.701Z,102170.38
2023-05-03T01:13:06.699Z,102167.72
2023-05-03T01:15:46.139Z,102165.13
2023-05-03T01:18:22.515Z,102170.56
2023-05-03T01:20:51.229Z,102167.03
2023-05-03T01:23:36.364Z,102163.63
2023-05-03T01:26:18.106Z,102177.94
2023-05-03T01:28:44.517Z,102172.72
2023-05-03T01:31:11.270Z,102172.78
2023-05-03T01:33:47.223Z,102176.31
2023-05-03T01:36:18.251Z,102171.94
2023-05-03T01:38:44.932Z,102173.75
2023-05-03T01:41:13.800Z,102181.00
2023-05-03T01:43:40.615Z,102182.81
2023-05-03T01:46:07.493Z,102193.50
2023-05-03T01:48:34.092Z,102181.94
2023-05-03T01:51:03.385Z,102189.09
2023-05-03T01:53:29.743Z,102186.44
2023-05-03T01:55:56.087Z,102180.25
2023-05-03T01:58:22.417Z,102193.59
2023-05-03T02:00:48.841Z,102190.06
2023-05-03T02:03:17.868Z,102182.16
2023-05-03T02:05:44.217Z,102186.63
2023-05-03T02:08:12.299Z,102189.38
2023-05-03T02:10:38.649Z,102181.50
2023-05-03T02:13:05.029Z,102192.25
2023-05-03T02:15:31.940Z,102195.97
2023-05-03T02:17:58.685Z,102190.84
2023-05-03T02:20:25.157Z,102199.16
2023-05-03T02:22:51.568Z,102202.97
2023-05-03T02:25:17.892Z,102198.13
2023-05-03T02:27:44.231Z,102202.91
2023-05-03T02:30:10.985Z,102203.28
2023-05-03T02:32:37.388Z,102204.72
2023-05-03T02:35:04.019Z,102204.25
2023-05-03T02:37:30.448Z,102218.91
2023-05-03T02:39:57.264Z,102218.44
2023-05-03T02:42:24.005Z,102223.28
2023-05-03T02:44:50.351Z,102223.66
2023-05-03T02:47:16.702Z,102224.00
2023-05-03T02:49:43.098Z,102226.09
2023-05-03T02:52:09.553Z,102221.06
2023-05-03T02:54:35.982Z,102227.63
2023-05-03T02:57:02.992Z,102224.28
2023-05-03T02:59:29.700Z,102225.41
2023-05-03T03:01:56.082Z,102228.34
2023-05-03T03:04:22.443Z,102218.81
2023-05-03T03:06:49.301Z,102219.84
2023-05-03T03:09:15.682Z,102211.19
2023-05-03T03:11:42.140Z,102206.13
2023-05-03T03:14:08.656Z,102211.75
2023-05-03T03:16:35.199Z,102201.22
2023-05-03T03:19:01.572Z,102205.94
2023-05-03T03:21:28.939Z,102192.81
2023-05-03T03:23:56.452Z,102201.94
2023-05-03T03:26:22.923Z,102203.06
2023-05-03T03:28:49.289Z,102197.91
2023-05-03T03:31:15.871Z,102185.72
2023-05-03T03:33:42.354Z,102187.63
2023-05-03T03:36:10.167Z,102186.94
2023-05-03T03:38:36.574Z,102187.03
2023-05-03T03:41:03.028Z,102196.13
2023-05-03T03:43:29.392Z,102190.03
2023-05-03T03:45:55.811Z,102188.50
2023-05-03T03:48:22.200Z,102191.34
2023-05-03T03:50:49.428Z,102180.78
2023-05-03T03:53:15.951Z,102186.28
2023-05-03T03:55:54.218Z,102181.16
2023-05-03T03:58:20.614Z,102183.88
2023-05-03T04:00:47.426Z,102187.50
2023-05-03T04:03:13.937Z,102189.38
2023-05-03T04:05:40.883Z,102196.59
2023-05-03T04:08:07.261Z,102193.16
2023-05-03T04:10:33.656Z,102189.75
2023-05-03T04:13:00.105Z,102194.19
2023-05-03T04:15:26.684Z,102191.63
2023-05-03T04:17:53.153Z,102191.63
2023-05-03T04:20:20.059Z,102192.53
2023-05-03T04:22:46.485Z,102185.34
2023-05-03T04:25:17.042Z,102185.28
2023-05-03T04:27:44.895Z,102187.81
2023-05-03T04:30:14.458Z,102178.91
2023-05-03T04:32:42.489Z,102185.78
2023-05-03T04:35:10.484Z,102183.88
2023-05-03T04:37:37.924Z,102181.03
2023-05-03T04:40:08.301Z,102173.84
2023-05-03T04:42:35.288Z,102184.31
2023-05-03T04:45:06.742Z,102189.44
2023-05-03T04:47:33.432Z,102188.41
2023-05-03T04:49:59.823Z,102194.44
2023-05-03T04:52:27.209Z,102197.78
2023-05-03T04:54:54.294Z,102205.56
2023-05-03T04:57:20.753Z,102211.50
2023-05-03T04:59:47.284Z,102204.94
2023-05-03T05:02:13.620Z,102207.28
2023-05-03T05:04:39.994Z,102210.44
2023-05-03T05:07:08.667Z,102215.25
2023-05-03T05:09:35.317Z,102220.16
2023-05-03T05:12:01.913Z,102219.69
2023-05-03T05:14:30.453Z,102223.59
2023-05-03T05:17:01.584Z,102222.09
2023-05-03T05:19:28.064Z,102239.34
2023-05-03T05:21:54.469Z,102238.03
2023-05-03T05:24:20.915Z,102233.94
2023-05-03T05:26:47.387Z,102241.41
2023-05-03T05:29:13.758Z,102238.16
2023-05-03T05:31:40.178Z,102242.94
2023-05-03T05:34:06.698Z,102249.38
2023-05-03T05:36:33.306Z,102243.50
2023-05-03T05:38:59.752Z,102248.22
2023-05-03T05:41:26.287Z,102249.38
2023-05-03T05:43:53.202Z,102253.16
2023-05-03T05:46:22.765Z,102247.25
2023-05-03T05:48:51.179Z,102253.81
2023-05-03T05:51:17.705Z,102262.94
2023-05-03T05:53:44.284Z,102258.81
2023-05-03T05:56:11.570Z,102252.88
2023-05-03T05:58:38.409Z,102255.88
2023-05-03T06:01:05.438Z,102257.94
2023-05-03T06:03:33.913Z,102261.94
2023-05-03T06:06:00.862Z,102259.59
2023-05-03T06:08:27.332Z,102269.69
2023-05-03T06:10:53.812Z,102276.44
2023-05-03T06:13:20.153Z,102268.84
2023-05-03T06:15:46.700Z,102273.78
2023-05-03T06:18:13.275Z,102276.06
2023-05-03T06:20:39.971Z,102279.16
2023-05-03T06:23:06.301Z,102276.94
2023-05-03T06:25:32.698Z,102272.13
2023-05-03T06:27:59.060Z,102271.69
2023-05-03T06:30:25.816Z,102278.34
2023-05-03T06:32:52.361Z,102277.91
2023-05-03T06:35:19.568Z,102286.25
2023-05-03T06:37:46.106Z,102277.81
2023-05-03T06:40:12.706Z,102279.81
2023-05-03T06:42:39.050Z,102285.47
2023-05-03T06:45:06.038Z,102284.84
2023-05-03T06:47:32.905Z,102288.56
2023-05-03T06:49:59.348Z,102278.03
2023-05-03T06:52:25.752Z,102286.28
2023-05-03T06:54:53.445Z,102280.97
2023-05-03T06:57:19.873Z,102279.22
2023-05-03T06:59:46.218Z,102288.19
2023-05-03T07:02:12.606Z,102283.84
2023-05-03T07:04:39.675Z,102283.19
2023-05-03T07:07:06.511Z,102271.75
2023-05-03T07:09:42.693Z,102278.13
2023-05-03T07:12:10.246Z,102278.31
2023-05-03T07:14:36.697Z,102267.97
2023-05-03T07:17:03.139Z,102265.53
2023-05-03T07:19:30.528Z,102273.13
2023-05-03T07:21:56.924Z,102268.13
2023-05-03T07:24:25.781Z,102258.75
2023-05-03T07:26:53.733Z,102260.81
2023-05-03T07:29:21.260Z,102259.28
2023-05-03T07:31:47.965Z,102257.56
2023-05-03T07:34:14.377Z,102253.03
2023-05-03T07:36:41.110Z,102250.34
2023-05-03T07:39:07.870Z,102257.53
2023-05-03T07:41:34.305Z,102250.69
2023-05-03T07:44:00.840Z,102249.47
2023-05-03T07:46:27.401Z,102241.16
2023-05-03T07:48:54.014Z,102231.16
2023-05-03T07:51:21.108Z,102231.75
2023-05-03T07:53:47.697Z,102238.44
2023-05-03T07:56:14.157Z,102228.06
2023-05-03T07:58:41.618Z,102224.59
2023-05-03T08:01:10.073Z,102232.59
2023-05-03T08:03:36.725Z,102231.88
2023-05-03T08:06:03.564Z,102232.94
2023-05-03T08:08:32.191Z,102223.28
2023-05-03T08:10:58.691Z,102223.31
2023-05-03T08:13:25.214Z,102222.56
2023-05-03T08:15:52.190Z,102226.28
2023-05-03T08:18:19.263Z,102228.31
2023-05-03T08:20:47.101Z,102224.81
2023-05-03T08:23:13.494Z,102232.50
2023-05-03T08:25:39.927Z,102225.59
2023-05-03T08:28:07.097Z,102226.44
2023-05-03T08:30:33.612Z,102228.16
2023-05-03T08:33:00.074Z,102226.44
2023-05-03T08:35:28.023Z,102216.69
2023-05-03T08:37:54.586Z,102222.75
2023-05-03T08:40:22.187Z,102226.44
2023-05-03T08:42:50.025Z,102222.75
2023-05-03T08:45:16.980Z,102229.88
2023-05-03T08:47:47.325Z,102226.19
2023-05-03T08:50:15.424Z,102229.59
2023-05-03T08:52:43.476Z,102233.88
2023-05-03T08:55:11.213Z,102238.84
2023-05-03T08:57:37.857Z,102230.22
2023-05-03T09:00:12.579Z,102230.41
2023-05-03T09:02:40.115Z,102233.16
2023-05-03T09:05:15.862Z,102231.19
2023-05-03T09:08:00.938Z,102227.41
2023-05-03T09:10:27.298Z,102233.72
2023-05-03T09:13:01.114Z,102224.53
2023-05-03T09:15:31.270Z,102217.56
2023-05-03T09:18:06.866Z,102209.63
2023-05-03T09:20:37.637Z,102208.25
2023-05-03T09:23:04.119Z,102204.97
2023-05-03T09:25:51.670Z,102201.28
2023-05-03T09:28:19.954Z,102208.25
2023-05-03T09:30:47.578Z,102194.47
2023-05-03T09:33:22.028Z,102187.09
2023-05-03T09:35:58.781Z,102195.72
2023-05-03T09:38:30.611Z,102194.88
2023-05-03T09:40:57.794Z,102190.34
2023-05-03T09:43:24.404Z,102190.34
2023-05-03T09:45:51.204Z,102193.75
2023-05-03T09:48:18.907Z,102190.63
2023-05-03T09:50:45.624Z,102183.09
2023-05-03T09:53:12.925Z,102178.81
2023-05-03T09:55:40.577Z,102181.66
2023-05-03T09:58:07.766Z,102171.97
2023-05-03T10:00:39.137Z,102178.47
2023-05-03T10:03:11.252Z,102190.69
2023-05-03T10:05:47.694Z,102184.72
2023-05-03T10:08:28.125Z,102191.25
2023-05-03T10:10:55.191Z,102174.47
2023-05-03T10:13:23.148Z,102172.88
2023-05-03T10:16:00.583Z,102174.00
2023-05-03T10:18:31.927Z,102164.44
2023-05-03T10:21:04.954Z,102165.81
2023-05-03T10:23:31.298Z,102169.94
2023-05-03T10:26:13.532Z,102169.34
2023-05-03T10:28:40.278Z,102158.09
2023-05-03T10:31:07.200Z,102144.97
2023-05-03T10:33:37.310Z,102149.75
2023-05-03T10:36:10.496Z,102151.56
2023-05-03T10:38:37.942Z,102146.56
2023-05-03T10:41:06.657Z,102138.66
2023-05-03T10:43:36.412Z,102140.78
2023-05-03T10:46:04.580Z,102140.16
2023-05-03T10:48:34.918Z,102140.41
2023-05-03T10:51:30.695Z,102134.03
2023-05-03T10:53:57.172Z,102138.81
2023-05-03T10:56:23.987Z,102131.13
2023-05-03T10:58:55.624Z,102133.22
2023-05-03T11:01:24.504Z,102133.59
2023-05-03T11:04:12.540Z,102134.00
2023-05-03T11:06:45.993Z,102125.56
2023-05-03T11:09:14.815Z,102119.13
2023-05-03T11:11:42.077Z,102117.94
2023-05-03T11:14:09.942Z,102121.03
2023-05-03T11:16:40.383Z,102112.44
2023-05-03T11:19:07.664Z,102111.94
2023-05-03T11:21:34.244Z,102113.50
2023-05-03T11:24:01.772Z,102120.44
2023-05-03T11:26:28.263Z,102109.31
2023-05-03T11:28:54.900Z,102131.50
2023-05-03T11:31:22.562Z,102120.53
2023-05-03T11:33:49.578Z,102120.66
2023-05-03T11:36:16.266Z,102117.97
2023-05-03T11:38:42.659Z,102113.38
2023-05-03T11:41:14.641Z,102114.59
2023-05-03T11:43:42.794Z,102118.72
2023-05-03T11:46:10.198Z,102112.63
2023-05-03T11:48:38.375Z,102108.44
2023-05-03T11:51:11.041Z,102108.09
2023-05-03T11:53:39.647Z,102112.34
2023-05-03T11:56:08.701Z,102114.91
2023-05-03T11:58:35.946Z,102113.03
2023-05-03T12:01:03.545Z,102112.06
2023-05-03T12:03:33.323Z,102098.31
2023-05-03T12:06:02.254Z,102104.94
2023-05-03T12:08:31.542Z,102106.00
2023-05-03T12:11:02.893Z,102098.59
2023-05-03T12:13:39.226Z,102091.38
2023-05-03T12:16:13.363Z,102089.84
2023-05-03T12:18:51.448Z,102093.94
2023-05-03T12:23:50.496Z,102090.56
2023-05-03T12:26:20.599Z,102087.22
2023-05-03T12:28:48.937Z,102085.00
2023-05-03T12:31:17.924Z,102080.09
2023-05-03T12:33:53.897Z,102089.59
2023-05-03T12:36:37.106Z,102071.31
2023-05-03T12:39:08.982Z,102072.66
2023-05-03T12:44:09.817Z,102078.28
2023-05-03T12:46:38.223Z,102070.63
2023-05-03T12:49:07.496Z,102063.66
2023-05-03T12:51:35.385Z,102063.84
2023-05-03T12:54:02.673Z,102052.16
2023-05-03T12:56:32.569Z,102065.72
2023-05-03T12:59:23.275Z,102057.38
2023-05-03T13:03:09.377Z,102049.56
2023-05-03T13:04:57.207Z,102051.78
2023-05-03T13:07:27.848Z,102047.56
2023-05-03T13:12:27.398Z,102025.34
2023-05-03T13:14:55.035Z,102032.47
2023-05-03T13:17:23.033Z,102027.53
2023-05-03T13:19:51.472Z,102026.00
2023-05-03T13:22:18.539Z,102019.75
2023-05-03T13:24:47.226Z,102019.41
2023-05-03T13:27:14.181Z,102013.63
2023-05-03T13:29:40.928Z,102013.28
2023-05-03T13:32:08.855Z,102005.63
2023-05-03T13:34:36.095Z,102003.22
2023-05-03T13:37:04.427Z,101994.56
2023-05-03T13:39:31.784Z,101999.28
2023-05-03T13:41:58.214Z,101993.16
2023-05-03T13:44:27.432Z,101987.03
2023-05-03T13:46:54.017Z,101982.75
2023-05-03T13:49:20.633Z,101983.41
2023-05-03T13:51:47.244Z,101973.91
2023-05-03T13:54:13.671Z,101968.28
2023-05-03T13:56:43.316Z,101968.47
2023-05-03T13:59:11.944Z,101969.31
2023-05-03T14:01:38.461Z,101954.69
2023-05-03T14:04:05.456Z,101963.88
2023-05-03T14:06:33.488Z,101940.25
2023-05-03T14:09:01.899Z,101939.22
2023-05-03T14:11:30.372Z,101948.53
2023-05-03T14:13:58.427Z,101935.44
2023-05-03T14:16:39.962Z,101934.25
2023-05-03T14:19:07.390Z,101928.81
2023-05-03T14:21:35.002Z,101930.84
2023-05-03T14:24:01.784Z,101921.03
2023-05-03T14:26:29.545Z,101913.72
2023-05-03T14:28:56.169Z,101919.81
2023-05-03T14:31:22.732Z,101919.63
2023-05-03T14:33:49.501Z,101914.00
2023-05-03T14:36:15.939Z,101908.38
2023-05-03T14:38:42.434Z,101909.25
2023-05-03T14:41:09.241Z,101909.25
2023-05-03T14:43:35.780Z,101910.94
2023-05-03T14:46:02.262Z,101906.53
2023-05-03T14:48:28.689Z,101893.78
2023-05-03T14:50:56.042Z,101900.91
2023-05-03T14:53:23.287Z,101891.91
2023-05-03T14:55:49.941Z,101893.41
2023-05-03T14:58:16.333Z,101886.78
2023-05-03T15:00:43.317Z,101883.69
2023-05-03T15:03:11.806Z,101882.31
2023-05-03T15:05:49.333Z,101883.28
2023-05-03T15:08:19.212Z,101890.91
2023-05-03T15:10:46.529Z,101889.53
2023-05-03T15:13:13.686Z,101886.44
2023-05-03T15:15:43.313Z,101886.22
2023-05-03T15:18:10.018Z,101886.53
2023-05-03T15:20:36.527Z,101883.63
2023-05-03T15:23:04.305Z,101881.59
2023-05-03T15:25:31.428Z,101884.47
2023-05-03T15:27:57.987Z,101875.84
2023-05-03T15:30:25.476Z,101882.50
2023-05-03T15:32:51.962Z,101888.94
2023-05-03T15:35:18.390Z,101879.94
2023-05-03T15:37:44.843Z,101881.28
2023-05-03T15:40:14.423Z,101880.91
2023-05-03T15:42:41.063Z,101878.66
2023-05-03T15:45:09.847Z,101869.97
2023-05-03T15:47:36.669Z,101877.56
2023-05-03T15:50:03.786Z,101870.53
2023-05-03T15:52:31.083Z,101872.50
2023-05-03T15:54:57.546Z,101870.75
2023-05-03T15:57:24.429Z,101875.06
2023-05-03T15:59:50.788Z,101872.06
2023-05-03T16:02:17.286Z,101870.06
2023-05-03T16:04:44.391Z,101869.66
2023-05-03T16:07:11.284Z,101869.56
2023-05-03T16:09:37.698Z,101863.81
2023-05-03T16:12:04.375Z,101870.84
2023-05-03T16:14:30.853Z,101866.78
2023-05-03T16:16:57.408Z,101861.03
2023-05-03T16:19:23.998Z,101865.31
2023-05-03T16:21:50.595Z,101860.38
2023-05-03T16:24:17.140Z,101860.91
2023-05-03T16:26:43.649Z,101853.09
2023-05-03T16:29:19.327Z,101854.06
2023-05-03T16:31:47.079Z,101850.00
2023-05-03T16:34:14.159Z,101851.59
2023-05-03T16:36:43.021Z,101854.88
2023-05-03T16:39:11.342Z,101848.25
2023-05-03T16:41:38.682Z,101846.28
2023-05-03T16:44:06.313Z,101845.06
2023-05-03T16:46:37.969Z,101839.41
2023-05-03T16:49:06.367Z,101838.63
2023-05-03T16:51:33.895Z,101837.59
2023-05-03T16:54:02.897Z,101833.81
2023-05-03T16:56:31.095Z,101839.75
2023-05-03T16:58:58.931Z,101838.09
2023-05-03T17:01:25.443Z,101842.81
2023-05-03T17:03:52.059Z,101839.25
2023-05-03T17:06:18.842Z,101830.84
2023-05-03T17:08:45.459Z,101826.03
2023-05-03T17:11:14.359Z,101830.84
2023-05-03T17:13:41.030Z,101828.09
2023-05-03T17:16:09.771Z,101823.03
2023-05-03T17:18:37.713Z,101826.00
2023-05-03T17:21:04.960Z,101826.00
2023-05-03T17:23:39.291Z,101827.69
2023-05-03T17:26:08.628Z,101815.69
2023-05-03T17:28:35.918Z,101820.94
2023-05-03T17:31:03.280Z,101818.00
2023-05-03T17:33:30.026Z,101830.22
2023-05-03T17:35:56.856Z,101814.44
2023-05-03T17:38:23.380Z,101815.69
2023-05-03T17:40:50.031Z,101809.38
2023-05-03T17:43:17.813Z,101819.88
2023-05-03T17:45:47.250Z,101818.41
2023-05-03T17:48:14.486Z,101809.97
2023-05-03T17:50:43.022Z,101813.50
2023-05-03T17:53:09.502Z,101809.91
2023-05-03T17:55:38.046Z,101812.63
2023-05-03T17:58:35.846Z,101824.19
2023-05-03T18:01:02.367Z,101814.28
2023-05-03T18:03:29.084Z,101809.84
2023-05-03T18:05:55.581Z,101810.66
2023-05-03T18:08:25.786Z,101807.69
2023-05-03T18:10:52.204Z,101806.41
2023-05-03T18:13:18.741Z,101810.19
2023-05-03T18:15:45.316Z,101816.91
2023-05-03T18:18:13.465Z,101811.22
2023-05-03T18:20:39.872Z,101805.09
2023-05-03T18:23:06.312Z,101809.19
2023-05-03T18:25:32.732Z,101809.97
2023-05-03T18:28:00.643Z,101802.72
2023-05-03T18:30:28.174Z,101812.94
2023-05-03T18:32:55.937Z,101803.34
2023-05-03T18:35:22.584Z,101808.44
2023-05-03T18:37:49.072Z,101805.47
2023-05-03T18:40:16.398Z,101807.38
2023-05-03T18:42:42.922Z,101810.06
2023-05-03T18:45:09.662Z,101819.88
2023-05-03T18:47:36.221Z,101819.13
2023-05-03T18:50:04.355Z,101823.81
2023-05-03T18:52:31.205Z,101824.75
2023-05-03T18:54:57.845Z,101818.53
2023-05-03T18:58:13.584Z,101813.56
2023-05-03T19:00:24.277Z,101818.53
2023-05-03T19:03:09.650Z,101817.97
2023-05-03T19:05:36.360Z,101817.78
2023-05-03T19:08:02.940Z,101823.63
2023-05-03T19:10:29.907Z,101821.16
2023-05-03T19:12:57.410Z,101819.53
2023-05-03T19:15:24.156Z,101821.25
2023-05-03T19:17:50.596Z,101816.72
2023-05-03T19:20:17.631Z,101820.00
2023-05-03T19:26:25.980Z,101815.25
2023-05-03T19:28:52.638Z,101816.59
2023-05-03T19:31:19.151Z,101817.78
2023-05-03T19:33:46.384Z,101812.69
2023-05-03T19:36:14.667Z,101820.28
2023-05-03T19:38:41.120Z,101815.03
2023-05-03T19:41:14.846Z,101821.44
2023-05-03T19:43:45.604Z,101823.28
2023-05-03T19:46:20.722Z,101823.41
2023-05-03T19:49:07.823Z,101829.81
2023-05-03T19:51:34.543Z,101827.53
2023-05-03T19:54:03.105Z,101832.06
2023-05-03T19:56:29.850Z,101831.16
2023-05-03T19:58:56.678Z,101823.19
2023-05-03T20:01:27.534Z,101832.75
2023-05-03T20:03:54.970Z,101823.63
2023-05-03T20:06:34.154Z,101825.25
2023-05-03T20:09:08.489Z,101828.75
2023-05-03T20:11:38.122Z,101831.41
2023-05-03T20:14:04.812Z,101831.34
2023-05-03T20:16:38.550Z,101847.34
2023-05-03T20:19:06.255Z,101837.47
2023-05-03T20:21:39.859Z,101842.66
2023-05-03T20:24:12.977Z,101836.34
2023-05-03T20:26:39.597Z,101845.03
2023-05-03T20:29:06.098Z,101835.69
2023-05-03T20:31:36.761Z,101831.94
2023-05-03T20:34:03.264Z,101825.28
2023-05-03T20:36:29.843Z,101826.44
2023-05-03T20:38:56.431Z,101826.19
2023-05-03T20:41:23.201Z,101829.34
2023-05-03T20:43:52.020Z,101822.59
2023-05-03T20:46:18.467Z,101828.59
2023-05-03T20:48:53.592Z,101817.41
2023-05-03T20:51:20.209Z,101827.81
2023-05-03T20:53:46.638Z,101833.78
2023-05-03T20:56:14.394Z,101819.06
2023-05-03T20:58:40.919Z,101830.47
2023-05-03T21:01:08.159Z,101824.81
2023-05-03T21:03:34.927Z,101827.13
2023-05-03T21:06:01.649Z,101824.03
2023-05-03T21:08:28.309Z,101823.63
2023-05-03T21:10:55.055Z,101816.13
2023-05-03T21:13:21.595Z,101805.78
2023-05-03T21:15:48.029Z,101813.34
2023-05-03T21:18:14.462Z,101801.31
2023-05-03T21:20:40.905Z,101811.56
2023-05-03T21:23:07.369Z,101815.53
2023-05-03T21:25:33.840Z,101817.78
2023-05-03T21:28:00.633Z,101818.09
2023-05-03T21:30:27.740Z,101821.22
2023-05-03T21:32:54.226Z,101816.25
2023-05-03T21:35:20.822Z,101814.88
2023-05-03T21:37:48.102Z,101811.59
2023-05-03T21:40:15.322Z,101815.59
2023-05-03T21:42:42.742Z,101820.56
2023-05-03T21:45:10.749Z,101806.69
2023-05-03T21:47:37.500Z,101808.84
2023-05-03T21:50:08.176Z,101808.25
2023-05-03T21:52:34.677Z,101799.63
2023-05-03T21:55:01.163Z,101800.06
2023-05-03T21:57:27.851Z,101795.09
2023-05-03T21:59:55.962Z,101793.69
2023-05-03T22:02:25.860Z,101786.88
2023-05-03T22:04:52.874Z,101781.97
2023-05-03T22:07:19.421Z,101793.16
2023-05-03T22:09:47.420Z,101794.41
2023-05-03T22:12:23.431Z,101794.88
2023-05-03T22:14:50.912Z,101796.25
2023-05-03T22:17:20.311Z,101784.94
2023-05-03T22:19:46.871Z,101789.06
2023-05-03T22:22:13.295Z,101787.78
2023-05-03T22:24:40.854Z,101781.81
2023-05-03T22:27:07.702Z,101781.25
2023-05-03T22:29:34.159Z,101779.00
2023-05-03T22:32:00.681Z,101774.06
2023-05-03T22:34:27.212Z,101779.84
2023-05-03T22:36:53.607Z,101784.63
2023-05-03T22:39:20.043Z,101780.38
2023-05-03T22:41:46.868Z,101773.63
2023-05-03T22:44:13.561Z,101774.75
2023-05-03T22:46:40.000Z,101774.19
2023-05-03T22:49:07.332Z,101771.03
2023-05-03T22:51:33.921Z,101772.28
2023-05-03T22:54:00.542Z,101773.56
2023-05-03T22:56:27.336Z,101759.41
2023-05-03T22:58:53.713Z,101769.56
2023-05-03T23:01:20.663Z,101771.69
2023-05-03T23:03:47.271Z,101764.75
2023-05-03T23:06:15.572Z,101766.88
2023-05-03T23:08:41.978Z,101757.38
2023-05-03T23:11:09.396Z,101761.91
2023-05-03T23:13:35.774Z,101760.47
2023-05-03T23:16:05.541Z,101758.91
2023-05-03T23:18:32.076Z,101751.13
2023-05-03T23:20:58.650Z,101752.25
2023-05-03T23:23:25.190Z,101753.38
2023-05-03T23:25:52.596Z,101758.91
2023-05-03T23:28:19.457Z,101747.44
2023-05-03T23:30:46.669Z,101746.72
2023-05-03T23:33:13.531Z,101740.63
2023-05-03T23:35:41.503Z,101749.66
2023-05-03T23:38:08.022Z,101745.41
2023-05-03T23:40:34.511Z,101732.13
2023-05-03T23:43:00.919Z,101739.47
2023-05-03T23:45:27.660Z,101724.50
2023-05-03T23:47:54.218Z,101721.09
2023-05-03T23:50:20.752Z,101730.25
2023-05-03T23:52:47.638Z,101726.00
2023-05-03T23:55:14.051Z,101725.28
2023-05-03T23:58:23.193Z,101719.19
